createdAt,value
2022-08-22T00:00:25.174Z,16.78
2022-08-22T00:03:12.821Z,17.86
2022-08-22T00:03:55.104Z,16.88
2022-08-22T00:07:15.010Z,16.80
2022-08-22T00:10:33.162Z,16.78
2022-08-22T00:13:36.358Z,16.84
2022-08-22T00:16:57.520Z,16.78
2022-08-22T00:20:15.883Z,16.90
2022-08-22T00:23:26.024Z,16.81
2022-08-22T00:26:33.883Z,16.79
2022-08-22T00:29:44.535Z,16.68
2022-08-22T00:32:59.397Z,16.64
2022-08-22T00:36:13.927Z,16.53
2022-08-22T00:39:21.472Z,16.49
2022-08-22T00:42:46.309Z,16.44
2022-08-22T00:46:10.848Z,16.54
2022-08-22T00:49:37.418Z,16.57
2022-08-22T00:52:55.373Z,16.59
2022-08-22T00:56:08.370Z,16.52
2022-08-22T00:59:33.123Z,16.49
2022-08-22T01:02:54.938Z,16.49
2022-08-22T01:06:33.099Z,16.51
2022-08-22T01:09:55.251Z,16.54
2022-08-22T01:13:54.451Z,16.57
2022-08-22T01:17:27.258Z,16.53
2022-08-22T01:20:59.490Z,16.51
2022-08-22T01:25:04.738Z,16.53
2022-08-22T01:28:40.285Z,16.47
2022-08-22T01:31:50.629Z,16.42
2022-08-22T01:35:18.256Z,16.44
2022-08-22T01:38:45.433Z,16.41
2022-08-22T01:42:03.514Z,16.36
2022-08-22T01:45:23.188Z,16.38
2022-08-22T01:48:57.354Z,16.34
2022-08-22T01:52:15.465Z,16.36
2022-08-22T01:55:56.336Z,16.46
2022-08-22T01:59:02.769Z,16.34
2022-08-22T02:02:55.123Z,16.34
2022-08-22T02:06:09.757Z,16.49
2022-08-22T02:09:34.719Z,16.41
2022-08-22T02:12:43.102Z,16.47
2022-08-22T02:16:35.261Z,16.50
2022-08-22T02:19:54.337Z,16.53
2022-08-22T02:23:06.193Z,16.50
2022-08-22T02:26:50.177Z,16.57
2022-08-22T02:30:11.150Z,16.56
2022-08-22T02:33:34.091Z,16.52
2022-08-22T02:36:50.453Z,16.55
2022-08-22T02:40:14.992Z,16.53
2022-08-22T02:43:28.404Z,16.56
2022-08-22T02:47:00.929Z,16.61
2022-08-22T02:50:07.298Z,16.67
2022-08-22T02:53:30.806Z,16.59
2022-08-22T02:56:39.495Z,16.66
2022-08-22T03:00:31.527Z,16.72
2022-08-22T03:03:42.044Z,16.73
2022-08-22T03:07:02.007Z,16.70
2022-08-22T03:10:14.506Z,16.71
2022-08-22T03:13:37.859Z,16.76
2022-08-22T03:17:06.167Z,16.76
2022-08-22T03:20:14.250Z,16.92
2022-08-22T03:23:28.270Z,16.73
2022-08-22T03:27:01.820Z,16.71
2022-08-22T03:30:19.700Z,16.74
2022-08-22T03:33:25.574Z,16.66
2022-08-22T03:36:31.457Z,16.62
2022-08-22T03:39:47.249Z,16.70
2022-08-22T03:43:10.988Z,16.72
2022-08-22T03:46:19.928Z,16.72
2022-08-22T03:49:33.009Z,16.71
2022-08-22T03:53:18.624Z,16.74
2022-08-22T03:57:16.917Z,16.79
2022-08-22T04:00:39.265Z,16.77
2022-08-22T04:04:01.298Z,16.81
2022-08-22T04:07:32.295Z,16.76
2022-08-22T04:10:39.946Z,16.84
2022-08-22T04:14:17.986Z,16.86
2022-08-22T04:17:39.240Z,16.92
2022-08-22T04:21:15.259Z,16.89
2022-08-22T04:24:52.890Z,16.89
2022-08-22T04:28:33.105Z,17.08
2022-08-22T04:31:46.290Z,17.10
2022-08-22T04:35:12.254Z,17.08
2022-08-22T04:38:30.321Z,17.14
2022-08-22T04:41:49.128Z,17.18
2022-08-22T04:44:56.338Z,17.15
2022-08-22T04:48:10.985Z,17.20
2022-08-22T04:51:24.627Z,17.22
2022-08-22T04:54:37.426Z,17.25
2022-08-22T04:58:09.721Z,17.28
2022-08-22T05:01:19.728Z,17.36
2022-08-22T05:04:32.758Z,17.42
2022-08-22T05:07:41.147Z,17.49
2022-08-22T05:10:47.492Z,17.56
2022-08-22T05:13:57.419Z,17.75
2022-08-22T05:17:01.720Z,17.66
2022-08-22T05:20:09.782Z,17.64
2022-08-22T05:23:25.168Z,17.73
2022-08-22T05:26:30.322Z,17.78
2022-08-22T05:29:33.678Z,17.76
2022-08-22T05:32:59.339Z,17.68
2022-08-22T05:36:07.630Z,17.70
2022-08-22T05:39:18.723Z,17.90
2022-08-22T05:42:37.550Z,17.86
2022-08-22T05:45:46.561Z,18.06
2022-08-22T05:49:19.049Z,18.13
2022-08-22T05:52:30.376Z,18.32
2022-08-22T05:55:55.599Z,18.32
2022-08-22T05:59:08.557Z,18.04
2022-08-22T06:02:25.181Z,18.02
2022-08-22T06:05:33.124Z,17.95
2022-08-22T06:08:40.605Z,17.96
2022-08-22T06:12:16.475Z,17.87
2022-08-22T06:15:35.193Z,17.85
2022-08-22T06:18:41.355Z,18.00
2022-08-22T06:21:48.138Z,18.04
2022-08-22T06:24:54.278Z,18.06
2022-08-22T06:28:01.696Z,18.08
2022-08-22T06:31:05.725Z,18.20
2022-08-22T06:34:36.349Z,18.16
2022-08-22T06:37:44.251Z,18.28
2022-08-22T06:40:49.123Z,18.35
2022-08-22T06:43:53.773Z,18.64
2022-08-22T06:47:00.399Z,18.74
2022-08-22T06:50:13.737Z,18.76
2022-08-22T06:53:45.963Z,18.79
2022-08-22T06:56:53.063Z,18.76
2022-08-22T06:59:59.140Z,19.05
2022-08-22T07:03:14.320Z,19.21
2022-08-22T07:06:28.613Z,19.05
2022-08-22T07:09:37.273Z,19.09
2022-08-22T07:23:44.963Z,18.94
2022-08-22T07:27:04.711Z,19.20
2022-08-22T07:30:12.912Z,19.13
2022-08-22T07:33:48.263Z,18.95
2022-08-22T07:37:02.205Z,19.03
2022-08-22T07:40:24.056Z,19.09
2022-08-22T07:43:32.929Z,19.42
2022-08-22T07:46:38.314Z,19.51
2022-08-22T07:49:58.803Z,19.75
2022-08-22T07:53:13.706Z,19.91
2022-08-22T07:56:27.745Z,20.30
2022-08-22T07:59:33.319Z,20.40
2022-08-22T08:02:36.996Z,20.44
2022-08-22T08:05:43.841Z,20.58
2022-08-22T08:08:46.749Z,20.42
2022-08-22T08:11:52.971Z,20.39
2022-08-22T08:14:56.791Z,20.45
2022-08-22T08:18:05.525Z,20.30
2022-08-22T08:21:14.967Z,20.45
2022-08-22T08:24:24.178Z,20.72
2022-08-22T08:27:50.409Z,21.13
2022-08-22T08:30:58.842Z,20.99
2022-08-22T08:34:06.767Z,21.12
2022-08-22T08:37:26.838Z,21.62
2022-08-22T08:40:32.839Z,22.32
2022-08-22T08:44:08.746Z,23.15
2022-08-22T08:47:17.385Z,23.09
2022-08-22T08:51:07.216Z,22.70
2022-08-22T08:54:33.715Z,22.51
2022-08-22T08:57:50.017Z,21.91
2022-08-22T09:00:59.346Z,22.22
2022-08-22T09:04:36.039Z,22.23
2022-08-22T09:07:48.461Z,21.87
2022-08-22T09:14:48.227Z,21.75
2022-08-22T09:18:10.888Z,21.62
2022-08-22T09:21:47.822Z,21.23
2022-08-22T09:40:15.394Z,22.15
2022-08-22T10:38:52.441Z,20.71
2022-08-22T10:42:16.998Z,20.68
2022-08-22T10:45:36.270Z,20.74
2022-08-22T10:48:48.323Z,20.73
2022-08-22T10:52:16.025Z,20.72
2022-08-22T10:55:26.966Z,20.47
2022-08-22T10:58:36.912Z,20.81
2022-08-22T11:01:52.402Z,20.81
2022-08-22T11:05:21.418Z,21.10
2022-08-22T11:08:44.302Z,21.53
2022-08-22T11:12:03.074Z,21.52
2022-08-22T11:15:27.253Z,21.42
2022-08-22T11:18:40.638Z,21.18
2022-08-22T11:22:10.325Z,20.80
2022-08-22T11:25:53.656Z,20.68
2022-08-22T11:29:13.481Z,20.65
2022-08-22T11:32:17.037Z,20.50
2022-08-22T11:35:33.053Z,20.54
2022-08-22T11:38:50.839Z,20.65
2022-08-22T11:42:12.644Z,20.71
2022-08-22T11:45:23.680Z,20.63
2022-08-22T11:48:41.303Z,20.71
2022-08-22T11:52:01.210Z,21.10
2022-08-22T11:55:07.239Z,20.85
2022-08-22T11:58:34.633Z,20.71
2022-08-22T12:01:44.098Z,20.66
2022-08-22T12:04:55.598Z,20.71
2022-08-22T12:08:40.765Z,20.72
2022-08-22T12:12:26.430Z,20.65
2022-08-22T12:15:35.960Z,20.33
2022-08-22T12:18:52.682Z,20.45
2022-08-22T12:22:15.071Z,20.52
2022-08-22T12:25:47.005Z,20.73
2022-08-22T12:29:15.480Z,20.72
2022-08-22T12:32:34.089Z,20.73
2022-08-22T13:16:01.496Z,20.44
2022-08-22T13:19:13.443Z,20.77
2022-08-22T13:22:22.298Z,21.04
2022-08-22T13:25:30.486Z,20.89
2022-08-22T13:28:47.997Z,20.72
2022-08-22T13:31:55.142Z,20.71
2022-08-22T13:35:00.791Z,20.74
2022-08-22T13:38:12.511Z,20.74
2022-08-22T13:41:27.186Z,20.76
2022-08-22T13:44:38.615Z,20.65
2022-08-22T13:47:51.370Z,20.62
2022-08-22T13:51:08.582Z,20.71
2022-08-22T13:54:20.323Z,20.45
2022-08-22T13:57:39.495Z,20.58
2022-08-22T14:01:09.464Z,20.86
2022-08-22T14:04:32.227Z,20.96
2022-08-22T14:07:43.740Z,20.45
2022-08-22T14:11:06.775Z,20.39
2022-08-22T14:14:12.150Z,20.36
2022-08-22T14:17:22.753Z,19.92
2022-08-22T14:20:32.643Z,20.01
2022-08-22T14:23:37.454Z,19.84
2022-08-22T14:26:51.626Z,19.86
2022-08-22T14:30:13.065Z,19.78
2022-08-22T14:33:25.868Z,19.74
2022-08-22T14:36:59.967Z,20.10
2022-08-22T14:40:29.923Z,20.10
2022-08-22T14:43:32.833Z,19.98
2022-08-22T14:47:04.152Z,19.90
2022-08-22T14:50:11.430Z,19.81
2022-08-22T14:53:25.178Z,19.74
2022-08-22T14:56:30.074Z,19.88
2022-08-22T14:59:39.294Z,19.89
2022-08-22T15:02:42.634Z,19.99
2022-08-22T15:06:10.991Z,20.05
2022-08-22T15:09:43.259Z,19.88
2022-08-22T15:12:52.283Z,19.96
2022-08-22T15:23:23.619Z,19.47
2022-08-22T15:26:38.374Z,19.51
2022-08-22T15:29:51.934Z,19.50
2022-08-22T15:33:09.364Z,19.48
2022-08-22T15:36:15.903Z,19.45
2022-08-22T15:39:31.725Z,19.50
2022-08-22T15:42:49.005Z,19.43
2022-08-22T15:46:28.370Z,19.37
2022-08-22T15:49:37.243Z,19.24
2022-08-22T15:53:04.643Z,19.08
2022-08-22T15:56:13.956Z,19.08
2022-08-22T15:59:18.396Z,19.01
2022-08-22T16:02:35.676Z,18.92
2022-08-22T16:06:08.575Z,18.83
2022-08-22T16:09:50.453Z,18.85
2022-08-22T16:13:12.135Z,18.85
2022-08-22T16:16:28.445Z,18.85
2022-08-22T16:19:33.730Z,18.81
2022-08-22T16:22:58.465Z,18.68
2022-08-22T16:26:06.744Z,18.55
2022-08-22T16:29:17.887Z,18.28
2022-08-22T16:32:28.246Z,18.38
2022-08-22T16:36:18.938Z,18.18
2022-08-22T16:39:21.904Z,18.19
2022-08-22T16:42:38.672Z,18.12
2022-08-22T16:45:48.706Z,18.24
2022-08-22T16:49:01.027Z,18.22
2022-08-22T16:52:25.699Z,18.03
2022-08-22T16:55:28.597Z,18.02
2022-08-22T16:59:03.346Z,18.03
2022-08-22T17:02:29.166Z,17.97
2022-08-22T17:05:38.839Z,17.86
2022-08-22T17:09:03.559Z,17.88
2022-08-22T17:12:25.366Z,17.84
2022-08-22T17:15:35.179Z,17.89
2022-08-22T17:19:06.512Z,17.89
2022-08-22T20:30:55.667Z,16.98
2022-08-22T20:34:03.155Z,16.87
2022-08-22T20:37:29.586Z,16.83
2022-08-22T20:40:56.554Z,16.88
2022-08-22T20:44:12.592Z,16.83
2022-08-22T20:47:23.982Z,16.88
2022-08-22T20:50:28.824Z,16.91
2022-08-22T20:53:32.375Z,16.88
2022-08-22T20:56:53.317Z,16.86
2022-08-22T21:00:05.389Z,16.78
2022-08-22T21:03:32.837Z,16.88
2022-08-22T21:06:37.687Z,16.93
2022-08-22T21:09:59.126Z,16.91
2022-08-22T21:13:04.909Z,16.85
2022-08-22T21:16:17.098Z,16.82
2022-08-22T21:19:25.727Z,16.82
2022-08-22T21:22:31.423Z,16.79
2022-08-22T21:25:50.685Z,16.88
2022-08-22T21:29:06.407Z,16.91
2022-08-22T21:32:26.928Z,16.88
2022-08-22T21:35:33.373Z,16.93
2022-08-22T21:38:38.141Z,16.86
2022-08-22T21:41:50.030Z,16.97
2022-08-22T21:45:06.650Z,16.87
2022-08-22T21:48:34.128Z,16.77
2022-08-22T21:51:36.940Z,16.84
2022-08-22T21:54:39.986Z,16.88
2022-08-22T21:57:43.374Z,16.78
2022-08-22T22:00:57.396Z,16.84
2022-08-22T22:04:00.913Z,16.84
2022-08-22T22:07:03.640Z,16.85
2022-08-22T22:10:09.401Z,16.85
2022-08-22T22:13:12.090Z,16.82
2022-08-22T22:16:22.956Z,16.85
2022-08-22T22:19:25.646Z,16.83
2022-08-22T22:22:28.846Z,16.91
2022-08-22T22:25:39.506Z,16.79
2022-08-22T22:28:47.597Z,16.84
